sensor_id;sensor_type;location;lat;lon;timestamp;pressure;altitude;pressure_sealevel;temperature;humidity
74372;BME280;62885;51.374;6.170;2023-02-15T00:01:44;102667.09;;;4.19;88.21
74372;BME280;62885;51.374;6.170;2023-02-15T00:04:12;102663.59;;;4.16;88.29
74372;BME280;62885;51.374;6.170;2023-02-15T00:06:38;102666.22;;;4.19;87.98
74372;BME280;62885;51.374;6.170;2023-02-15T00:09:03;102660.16;;;4.10;88.14
74372;BME280;62885;51.374;6.170;2023-02-15T00:11:29;102653.09;;;4.11;88.29
74372;BME280;62885;51.374;6.170;2023-02-15T00:14:22;102649.56;;;4.10;88.09
74372;BME280;62885;51.374;6.170;2023-02-15T00:16:49;102650.56;;;4.05;88.01
74372;BME280;62885;51.374;6.170;2023-02-15T00:19:19;102649.69;;;4.03;88.73
74372;BME280;62885;51.374;6.170;2023-02-15T00:21:47;102649.78;;;3.98;88.65
74372;BME280;62885;51.374;6.170;2023-02-15T00:24:14;102649.97;;;3.89;88.80
74372;BME280;62885;51.374;6.170;2023-02-15T00:26:40;102642.03;;;3.88;89.00
74372;BME280;62885;51.374;6.170;2023-02-15T00:29:09;102644.56;;;3.95;88.76
74372;BME280;62885;51.374;6.170;2023-02-15T00:31:35;102638.50;;;3.87;88.52
74372;BME280;62885;51.374;6.170;2023-02-15T00:34:11;102640.41;;;3.79;89.27
74372;BME280;62885;51.374;6.170;2023-02-15T00:36:38;102639.59;;;3.74;89.35
74372;BME280;62885;51.374;6.170;2023-02-15T00:39:03;102638.72;;;3.73;89.02
74372;BME280;62885;51.374;6.170;2023-02-15T00:41:32;102634.28;;;3.76;88.89
74372;BME280;62885;51.374;6.170;2023-02-15T00:43:58;102643.13;;;3.76;88.90
74372;BME280;62885;51.374;6.170;2023-02-15T00:46:23;102649.31;;;3.75;89.06
74372;BME280;62885;51.374;6.170;2023-02-15T00:48:49;102645.84;;;3.71;89.31
74372;BME280;62885;51.374;6.170;2023-02-15T00:51:14;102644.09;;;3.70;89.40
74372;BME280;62885;51.374;6.170;2023-02-15T00:53:39;102637.16;;;3.62;89.22
74372;BME280;62885;51.374;6.170;2023-02-15T00:56:05;102640.75;;;3.58;89.80
74372;BME280;62885;51.374;6.170;2023-02-15T00:58:30;102641.56;;;3.63;89.35
74372;BME280;62885;51.374;6.170;2023-02-15T01:01:06;102639.78;;;3.65;89.42
74372;BME280;62885;51.374;6.170;2023-02-15T01:03:33;102626.56;;;3.62;89.42
74372;BME280;62885;51.374;6.170;2023-02-15T01:05:58;102628.44;;;3.55;89.78
74372;BME280;62885;51.374;6.170;2023-02-15T01:08:24;102625.84;;;3.54;89.65
74372;BME280;62885;51.374;6.170;2023-02-15T01:10:49;102629.28;;;3.57;89.78
74372;BME280;62885;51.374;6.170;2023-02-15T01:13:15;102621.41;;;3.54;89.33
74372;BME280;62885;51.374;6.170;2023-02-15T01:15:42;102622.34;;;3.50;89.83
74372;BME280;62885;51.374;6.170;2023-02-15T01:18:07;102626.00;;;3.43;90.00
74372;BME280;62885;51.374;6.170;2023-02-15T01:20:35;102621.59;;;3.42;89.94
74372;BME280;62885;51.374;6.170;2023-02-15T01:23:02;102623.38;;;3.40;90.34
74372;BME280;62885;51.374;6.170;2023-02-15T01:25:27;102620.75;;;3.39;90.48
74372;BME280;62885;51.374;6.170;2023-02-15T01:27:53;102619.16;;;3.30;90.29
74372;BME280;62885;51.374;6.170;2023-02-15T01:30:18;102624.47;;;3.28;90.49
74372;BME280;62885;51.374;6.170;2023-02-15T01:32:44;102617.38;;;3.30;90.47
74372;BME280;62885;51.374;6.170;2023-02-15T01:35:10;102607.69;;;3.28;90.24
74372;BME280;62885;51.374;6.170;2023-02-15T01:37:36;102609.47;;;3.27;90.55
74372;BME280;62885;51.374;6.170;2023-02-15T01:40:03;102605.06;;;3.28;90.47
74372;BME280;62885;51.374;6.170;2023-02-15T01:42:29;102599.84;;;3.22;90.49
74372;BME280;62885;51.374;6.170;2023-02-15T01:45:04;102595.50;;;3.18;90.65
74372;BME280;62885;51.374;6.170;2023-02-15T01:47:39;102599.06;;;3.17;90.78
74372;BME280;62885;51.374;6.170;2023-02-15T01:50:11;102587.59;;;3.16;90.68
74372;BME280;62885;51.374;6.170;2023-02-15T01:52:42;102584.94;;;3.16;90.96
74372;BME280;62885;51.374;6.170;2023-02-15T01:55:08;102592.09;;;3.10;90.88
74372;BME280;62885;51.374;6.170;2023-02-15T01:57:34;102594.78;;;3.08;90.85
74372;BME280;62885;51.374;6.170;2023-02-15T02:00:02;102581.50;;;3.10;90.43
74372;BME280;62885;51.374;6.170;2023-02-15T02:02:28;102591.31;;;3.03;91.20
74372;BME280;62885;51.374;6.170;2023-02-15T02:04:58;102586.97;;;2.99;91.20
74372;BME280;62885;51.374;6.170;2023-02-15T02:07:27;102586.09;;;2.97;91.27
74372;BME280;62885;51.374;6.170;2023-02-15T02:09:54;102588.72;;;2.99;91.30
74372;BME280;62885;51.374;6.170;2023-02-15T02:12:20;102578.13;;;3.00;91.12
74372;BME280;62885;51.374;6.170;2023-02-15T02:14:47;102585.19;;;3.00;91.31
74372;BME280;62885;51.374;6.170;2023-02-15T02:17:20;102579.03;;;2.98;91.14
74372;BME280;62885;51.374;6.170;2023-02-15T02:23:10;102559.81;;;2.86;91.12
74372;BME280;62885;51.374;6.170;2023-02-15T02:28:25;102557.25;;;2.82;91.50
74372;BME280;62885;51.374;6.170;2023-02-15T02:39:12;102552.91;;;2.78;91.53
74372;BME280;62885;51.374;6.170;2023-02-15T02:44:13;102548.53;;;2.74;91.32
74372;BME280;62885;51.374;6.170;2023-02-15T02:49:34;102548.59;;;2.69;91.44
74372;BME280;62885;51.374;6.170;2023-02-15T02:52:02;102550.44;;;2.66;91.49
74372;BME280;62885;51.374;6.170;2023-02-15T02:54:30;102540.72;;;2.66;91.67
74372;BME280;62885;51.374;6.170;2023-02-15T02:56:59;102544.28;;;2.62;91.69
74372;BME280;62885;51.374;6.170;2023-02-15T02:59:33;102540.81;;;2.60;91.50
74372;BME280;62885;51.374;6.170;2023-02-15T03:04:31;102540.81;;;2.59;91.63
74372;BME280;62885;51.374;6.170;2023-02-15T03:07:01;102535.53;;;2.60;91.55
74372;BME280;62885;51.374;6.170;2023-02-15T03:09:35;102532.91;;;2.57;91.63
74372;BME280;62885;51.374;6.170;2023-02-15T03:12:17;102525.78;;;2.62;91.69
74372;BME280;62885;51.374;6.170;2023-02-15T03:14:46;102520.56;;;2.58;91.58
74372;BME280;62885;51.374;6.170;2023-02-15T03:17:14;102521.50;;;2.54;91.69
74372;BME280;62885;51.374;6.170;2023-02-15T03:19:43;102526.72;;;2.60;91.48
74372;BME280;62885;51.374;6.170;2023-02-15T03:22:18;102521.44;;;2.58;91.56
74372;BME280;62885;51.374;6.170;2023-02-15T03:27:22;102512.69;;;2.53;91.34
74372;BME280;62885;51.374;6.170;2023-02-15T03:29:53;102524.22;;;2.49;91.41
74372;BME280;62885;51.374;6.170;2023-02-15T03:32:20;102520.66;;;2.52;91.18
74372;BME280;62885;51.374;6.170;2023-02-15T03:34:46;102519.03;;;2.40;91.70
74372;BME280;62885;51.374;6.170;2023-02-15T03:37:21;102516.38;;;2.44;91.69
74372;BME280;62885;51.374;6.170;2023-02-15T03:39:54;102518.88;;;2.51;91.67
74372;BME280;62885;51.374;6.170;2023-02-15T03:42:26;102508.44;;;2.44;91.37
74372;BME280;62885;51.374;6.170;2023-02-15T03:45:02;102506.78;;;2.36;91.99
74372;BME280;62885;51.374;6.170;2023-02-15T03:47:36;102512.91;;;2.38;92.17
74372;BME280;62885;51.374;6.170;2023-02-15T03:52:51;102507.66;;;2.36;91.60
74372;BME280;62885;51.374;6.170;2023-02-15T03:55:17;102511.19;;;2.34;91.75
74372;BME280;62885;51.374;6.170;2023-02-15T03:57:43;102498.06;;;2.28;91.59
74372;BME280;62885;51.374;6.170;2023-02-15T04:00:35;102492.84;;;2.23;91.90
74372;BME280;62885;51.374;6.170;2023-02-15T04:03:33;102502.56;;;2.21;92.01
74372;BME280;62885;51.374;6.170;2023-02-15T04:06:02;102504.38;;;2.18;92.46
74372;BME280;62885;51.374;6.170;2023-02-15T04:08:28;102503.56;;;2.13;92.56
74372;BME280;62885;51.374;6.170;2023-02-15T04:11:12;102508.91;;;2.06;93.19
74372;BME280;62885;51.374;6.170;2023-02-15T04:13:37;102504.44;;;2.12;93.21
74372;BME280;62885;51.374;6.170;2023-02-15T04:16:03;102501.84;;;2.09;92.22
74372;BME280;62885;51.374;6.170;2023-02-15T04:21:19;102500.13;;;2.04;93.05
74372;BME280;62885;51.374;6.170;2023-02-15T04:24:04;102486.94;;;2.03;92.60
74372;BME280;62885;51.374;6.170;2023-02-15T04:26:47;102497.47;;;2.04;92.48
74372;BME280;62885;51.374;6.170;2023-02-15T04:29:16;102486.91;;;2.06;92.81
74372;BME280;62885;51.374;6.170;2023-02-15T04:31:41;102491.31;;;2.04;92.41
74372;BME280;62885;51.374;6.170;2023-02-15T04:34:08;102491.34;;;2.02;92.72
74372;BME280;62885;51.374;6.170;2023-02-15T04:36:33;102486.97;;;2.01;92.13
74372;BME280;62885;51.374;6.170;2023-02-15T04:38:58;102488.66;;;2.05;92.46
74372;BME280;62885;51.374;6.170;2023-02-15T04:41:24;102483.44;;;1.99;92.66
74372;BME280;62885;51.374;6.170;2023-02-15T04:43:49;102481.75;;;1.97;92.47
74372;BME280;62885;51.374;6.170;2023-02-15T04:46:14;102487.03;;;1.95;93.03
74372;BME280;62885;51.374;6.170;2023-02-15T04:48:40;102482.69;;;1.91;92.81
74372;BME280;62885;51.374;6.170;2023-02-15T04:51:06;102480.06;;;1.90;93.09
74372;BME280;62885;51.374;6.170;2023-02-15T04:53:32;102481.84;;;1.88;92.61
74372;BME280;62885;51.374;6.170;2023-02-15T04:55:58;102485.34;;;1.88;93.42
74372;BME280;62885;51.374;6.170;2023-02-15T04:58:23;102485.41;;;1.85;92.92
74372;BME280;62885;51.374;6.170;2023-02-15T05:00:48;102482.69;;;1.91;92.71
74372;BME280;62885;51.374;6.170;2023-02-15T05:03:14;102480.88;;;1.93;92.52
74372;BME280;62885;51.374;6.170;2023-02-15T05:05:39;102471.28;;;1.88;93.23
74372;BME280;62885;51.374;6.170;2023-02-15T05:08:05;102472.13;;;1.91;92.76
74372;BME280;62885;51.374;6.170;2023-02-15T05:10:31;102473.94;;;1.86;92.88
74372;BME280;62885;51.374;6.170;2023-02-15T05:12:56;102468.69;;;1.83;93.03
74372;BME280;62885;51.374;6.170;2023-02-15T05:15:21;102467.81;;;1.84;92.99
74372;BME280;62885;51.374;6.170;2023-02-15T05:17:47;102470.44;;;1.84;93.43
74372;BME280;62885;51.374;6.170;2023-02-15T05:20:12;102467.81;;;1.83;93.32
74372;BME280;62885;51.374;6.170;2023-02-15T05:22:38;102468.75;;;1.79;92.81
74372;BME280;62885;51.374;6.170;2023-02-15T05:25:03;102466.03;;;1.85;92.70
74372;BME280;62885;51.374;6.170;2023-02-15T05:27:47;102462.53;;;1.83;92.99
74372;BME280;62885;51.374;6.170;2023-02-15T05:30:31;102459.94;;;1.78;93.13
74372;BME280;62885;51.374;6.170;2023-02-15T05:32:59;102460.84;;;1.77;93.42
74372;BME280;62885;51.374;6.170;2023-02-15T05:35:24;102460.00;;;1.74;92.81
74372;BME280;62885;51.374;6.170;2023-02-15T05:37:49;102461.78;;;1.73;93.49
74372;BME280;62885;51.374;6.170;2023-02-15T05:40:15;102459.09;;;1.76;93.31
74372;BME280;62885;51.374;6.170;2023-02-15T05:42:40;102453.00;;;1.71;93.29
74372;BME280;62885;51.374;6.170;2023-02-15T05:45:06;102452.13;;;1.71;93.26
74372;BME280;62885;51.374;6.170;2023-02-15T05:47:31;102465.31;;;1.69;93.44
74372;BME280;62885;51.374;6.170;2023-02-15T05:49:56;102459.22;;;1.65;92.81
74372;BME280;62885;51.374;6.170;2023-02-15T05:52:22;102463.56;;;1.70;92.98
74372;BME280;62885;51.374;6.170;2023-02-15T05:54:47;102459.22;;;1.65;93.64
74372;BME280;62885;51.374;6.170;2023-02-15T05:57:12;102456.56;;;1.69;92.90
74372;BME280;62885;51.374;6.170;2023-02-15T05:59:38;102464.47;;;1.69;93.44
74372;BME280;62885;51.374;6.170;2023-02-15T06:02:03;102467.00;;;1.76;92.84
74372;BME280;62885;51.374;6.170;2023-02-15T06:04:29;102466.25;;;1.67;93.21
74372;BME280;62885;51.374;6.170;2023-02-15T06:06:54;102472.41;;;1.67;92.97
74372;BME280;62885;51.374;6.170;2023-02-15T06:09:19;102465.31;;;1.69;93.23
74372;BME280;62885;51.374;6.170;2023-02-15T06:11:45;102467.94;;;1.72;93.31
74372;BME280;62885;51.374;6.170;2023-02-15T06:14:11;102466.19;;;1.73;93.26
74372;BME280;62885;51.374;6.170;2023-02-15T06:16:36;102466.13;;;1.79;92.99
74372;BME280;62885;51.374;6.170;2023-02-15T06:19:02;102467.94;;;1.71;92.84
74372;BME280;62885;51.374;6.170;2023-02-15T06:21:29;102472.41;;;1.67;92.42
74372;BME280;62885;51.374;6.170;2023-02-15T06:23:55;102469.91;;;1.55;93.02
74372;BME280;62885;51.374;6.170;2023-02-15T06:26:20;102463.75;;;1.54;93.42
74372;BME280;62885;51.374;6.170;2023-02-15T06:28:45;102468.97;;;1.59;93.07
74372;BME280;62885;51.374;6.170;2023-02-15T06:31:11;102469.91;;;1.55;93.17
74372;BME280;62885;51.374;6.170;2023-02-15T06:33:36;102465.50;;;1.55;92.96
74372;BME280;62885;51.374;6.170;2023-02-15T06:36:02;102467.25;;;1.55;93.55
74372;BME280;62885;51.374;6.170;2023-02-15T06:38:29;102456.75;;;1.50;93.95
74372;BME280;62885;51.374;6.170;2023-02-15T06:40:54;102459.34;;;1.53;93.93
74372;BME280;62885;51.374;6.170;2023-02-15T06:43:20;102458.47;;;1.53;93.37
74372;BME280;62885;51.374;6.170;2023-02-15T06:45:45;102456.78;;;1.47;93.00
74372;BME280;62885;51.374;6.170;2023-02-15T06:48:10;102457.69;;;1.45;93.67
74372;BME280;62885;51.374;6.170;2023-02-15T06:50:36;102455.91;;;1.47;93.39
74372;BME280;62885;51.374;6.170;2023-02-15T06:53:02;102454.13;;;1.47;93.09
74372;BME280;62885;51.374;6.170;2023-02-15T06:55:28;102457.59;;;1.52;93.53
74372;BME280;62885;51.374;6.170;2023-02-15T06:57:53;102441.81;;;1.46;93.45
74372;BME280;62885;51.374;6.170;2023-02-15T07:00:18;102450.66;;;1.45;93.51
74372;BME280;62885;51.374;6.170;2023-02-15T07:02:44;102458.56;;;1.45;92.80
74372;BME280;62885;51.374;6.170;2023-02-15T07:05:10;102448.03;;;1.44;93.65
74372;BME280;62885;51.374;6.170;2023-02-15T07:07:35;102455.88;;;1.50;92.95
74372;BME280;62885;51.374;6.170;2023-02-15T07:10:01;102444.47;;;1.46;93.16
74372;BME280;62885;51.374;6.170;2023-02-15T07:12:27;102456.78;;;1.47;93.26
74372;BME280;62885;51.374;6.170;2023-02-15T07:15:12;102453.22;;;1.51;93.27
74372;BME280;62885;51.374;6.170;2023-02-15T07:17:38;102449.66;;;1.54;92.83
74372;BME280;62885;51.374;6.170;2023-02-15T07:20:11;102440.84;;;1.56;93.25
74372;BME280;62885;51.374;6.170;2023-02-15T07:22:36;102438.22;;;1.56;92.73
74372;BME280;62885;51.374;6.170;2023-02-15T07:25:04;102439.91;;;1.60;92.74
74372;BME280;62885;51.374;6.170;2023-02-15T07:27:30;102438.16;;;1.61;92.64
74372;BME280;62885;51.374;6.170;2023-02-15T07:29:56;102428.41;;;1.68;93.02
74372;BME280;62885;51.374;6.170;2023-02-15T07:32:21;102430.13;;;1.70;92.41
74372;BME280;62885;51.374;6.170;2023-02-15T07:34:46;102426.59;;;1.70;92.60
74372;BME280;62885;51.374;6.170;2023-02-15T07:37:12;102425.66;;;1.75;92.43
74372;BME280;62885;51.374;6.170;2023-02-15T07:39:37;102424.75;;;1.76;92.89
74372;BME280;62885;51.374;6.170;2023-02-15T07:42:02;102437.06;;;1.79;92.35
74372;BME280;62885;51.374;6.170;2023-02-15T07:44:28;102425.53;;;1.86;92.00
74372;BME280;62885;51.374;6.170;2023-02-15T07:46:53;102433.31;;;1.98;91.90
74372;BME280;62885;51.374;6.170;2023-02-15T07:49:19;102426.94;;;2.11;91.03
74372;BME280;62885;51.374;6.170;2023-02-15T07:51:44;102431.34;;;2.11;91.15
74372;BME280;62885;51.374;6.170;2023-02-15T07:54:10;102431.34;;;2.14;90.95
74372;BME280;62885;51.374;6.170;2023-02-15T07:56:35;102431.25;;;2.18;90.90
74372;BME280;62885;51.374;6.170;2023-02-15T07:59:01;102422.34;;;2.27;90.36
74372;BME280;62885;51.374;6.170;2023-02-15T08:01:35;102421.56;;;2.20;90.51
74372;BME280;62885;51.374;6.170;2023-02-15T08:04:02;102420.53;;;2.29;90.66
74372;BME280;62885;51.374;6.170;2023-02-15T08:06:31;102413.41;;;2.34;90.45
74372;BME280;62885;51.374;6.170;2023-02-15T08:08:57;102405.47;;;2.37;89.86
74372;BME280;62885;51.374;6.170;2023-02-15T08:11:28;102406.25;;;2.43;89.94
74372;BME280;62885;51.374;6.170;2023-02-15T08:13:58;102403.50;;;2.50;89.13
74372;BME280;62885;51.374;6.170;2023-02-15T08:16:25;102398.13;;;2.54;88.96
74372;BME280;62885;51.374;6.170;2023-02-15T08:18:51;102394.53;;;2.58;88.96
74372;BME280;62885;51.374;6.170;2023-02-15T08:21:18;102387.38;;;2.66;89.10
74372;BME280;62885;51.374;6.170;2023-02-15T08:23:44;102386.38;;;2.73;88.97
74372;BME280;62885;51.374;6.170;2023-02-15T08:26:10;102386.38;;;2.73;88.55
74372;BME280;62885;51.374;6.170;2023-02-15T08:28:35;102392.38;;;2.83;88.48
74372;BME280;62885;51.374;6.170;2023-02-15T08:31:10;102396.56;;;2.96;87.91
74372;BME280;62885;51.374;6.170;2023-02-15T08:33:38;102396.38;;;3.07;87.63
74372;BME280;62885;51.374;6.170;2023-02-15T08:36:09;102395.53;;;3.03;87.21
74372;BME280;62885;51.374;6.170;2023-02-15T08:38:35;102391.16;;;3.02;87.30
74372;BME280;62885;51.374;6.170;2023-02-15T08:41:15;102383.22;;;3.02;87.25
74372;BME280;62885;51.374;6.170;2023-02-15T08:43:42;102383.16;;;3.05;87.27
74372;BME280;62885;51.374;6.170;2023-02-15T08:46:09;102386.53;;;3.13;86.99
74372;BME280;62885;51.374;6.170;2023-02-15T08:48:35;102390.78;;;3.20;86.88
74372;BME280;62885;51.374;6.170;2023-02-15T08:51:15;102377.56;;;3.20;87.00
74372;BME280;62885;51.374;6.170;2023-02-15T08:53:42;102392.34;;;3.32;86.37
74372;BME280;62885;51.374;6.170;2023-02-15T08:56:09;102391.31;;;3.39;86.29
74372;BME280;62885;51.374;6.170;2023-02-15T08:58:35;102385.94;;;3.44;86.14
74372;BME280;62885;51.374;6.170;2023-02-15T09:01:01;102391.06;;;3.53;85.60
74372;BME280;62885;51.374;6.170;2023-02-15T09:03:31;102387.22;;;3.67;85.31
74372;BME280;62885;51.374;6.170;2023-02-15T09:06:00;102386.19;;;3.75;85.26
74372;BME280;62885;51.374;6.170;2023-02-15T09:08:26;102383.69;;;3.68;84.58
74372;BME280;62885;51.374;6.170;2023-02-15T09:10:52;102384.44;;;3.73;84.32
74372;BME280;62885;51.374;6.170;2023-02-15T09:13:17;102378.97;;;3.83;84.54
74372;BME280;62885;51.374;6.170;2023-02-15T09:15:42;102381.22;;;4.01;84.71
74372;BME280;62885;51.374;6.170;2023-02-15T09:18:08;102377.47;;;4.09;83.46
74372;BME280;62885;51.374;6.170;2023-02-15T09:20:36;102381.59;;;4.24;83.31
74372;BME280;62885;51.374;6.170;2023-02-15T09:23:02;102382.22;;;4.34;82.50
74372;BME280;62885;51.374;6.170;2023-02-15T09:25:28;102381.38;;;4.32;82.21
74372;BME280;62885;51.374;6.170;2023-02-15T09:27:53;102373.44;;;4.32;82.64
74372;BME280;62885;51.374;6.170;2023-02-15T09:30:19;102384.66;;;4.43;82.55
74372;BME280;62885;51.374;6.170;2023-02-15T09:32:45;102375.59;;;4.53;82.29
74372;BME280;62885;51.374;6.170;2023-02-15T09:35:13;102375.19;;;4.68;82.03
74372;BME280;62885;51.374;6.170;2023-02-15T09:37:38;102376.75;;;4.77;81.47
74372;BME280;62885;51.374;6.170;2023-02-15T09:40:04;102371.09;;;4.90;81.14
74372;BME280;62885;51.374;6.170;2023-02-15T09:43:11;102372.69;;;4.97;81.15
74372;BME280;62885;51.374;6.170;2023-02-15T09:46:26;102381.25;;;5.07;80.63
74372;BME280;62885;51.374;6.170;2023-02-15T09:49:06;102383.53;;;5.22;80.38
74372;BME280;62885;51.374;6.170;2023-02-15T09:54:30;102389.25;;;5.40;80.43
74372;BME280;62885;51.374;6.170;2023-02-15T09:57:10;102386.38;;;5.47;79.32
74372;BME280;62885;51.374;6.170;2023-02-15T09:59:53;102382.78;;;5.48;79.07
74372;BME280;62885;51.374;6.170;2023-02-15T10:02:37;102378.09;;;5.58;78.67
74372;BME280;62885;51.374;6.170;2023-02-15T10:14:14;102376.66;;;6.06;77.28
74372;BME280;62885;51.374;6.170;2023-02-15T10:20:08;102382.25;;;6.27;76.46
74372;BME280;62885;51.374;6.170;2023-02-15T10:22:52;102375.91;;;6.31;76.58
74372;BME280;62885;51.374;6.170;2023-02-15T10:27:58;102378.97;;;6.46;76.05
74372;BME280;62885;51.374;6.170;2023-02-15T10:33:11;102366.91;;;6.63;75.44
74372;BME280;62885;51.374;6.170;2023-02-15T10:38:51;102364.34;;;6.86;74.76
74372;BME280;62885;51.374;6.170;2023-02-15T10:41:25;102363.75;;;7.03;74.20
74372;BME280;62885;51.374;6.170;2023-02-15T10:44:29;102358.97;;;7.12;73.76
74372;BME280;62885;51.374;6.170;2023-02-15T10:47:06;102360.09;;;7.30;73.06
74372;BME280;62885;51.374;6.170;2023-02-15T10:55:11;102351.22;;;7.54;72.72
74372;BME280;62885;51.374;6.170;2023-02-15T11:00:14;102358.31;;;7.78;71.88
74372;BME280;62885;51.374;6.170;2023-02-15T11:03:04;102359.00;;;7.83;71.42
74372;BME280;62885;51.374;6.170;2023-02-15T11:08:14;102358.94;;;8.08;71.00
74372;BME280;62885;51.374;6.170;2023-02-15T11:10:59;102348.06;;;8.13;70.50
74372;BME280;62885;51.374;6.170;2023-02-15T11:13:29;102345.78;;;8.25;70.49
74372;BME280;62885;51.374;6.170;2023-02-15T11:16:11;102348.25;;;8.32;69.59
74372;BME280;62885;51.374;6.170;2023-02-15T11:18:50;102342.50;;;8.41;69.83
74372;BME280;62885;51.374;6.170;2023-02-15T11:23:44;102340.88;;;8.58;69.16
74372;BME280;62885;51.374;6.170;2023-02-15T11:26:16;102333.56;;;8.63;69.17
74372;BME280;62885;51.374;6.170;2023-02-15T11:28:52;102335.28;;;8.64;69.09
74372;BME280;62885;51.374;6.170;2023-02-15T11:31:23;102326.31;;;8.67;68.68
74372;BME280;62885;51.374;6.170;2023-02-15T11:33:58;102317.63;;;8.82;68.35
74372;BME280;62885;51.374;6.170;2023-02-15T11:36:28;102316.44;;;8.89;67.30
74372;BME280;62885;51.374;6.170;2023-02-15T11:39:01;102320.88;;;9.09;67.15
74372;BME280;62885;51.374;6.170;2023-02-15T11:41:31;102315.16;;;8.98;66.73
74372;BME280;62885;51.374;6.170;2023-02-15T11:44:11;102318.81;;;9.16;66.79
74372;BME280;62885;51.374;6.170;2023-02-15T11:46:40;102319.56;;;9.19;66.93
74372;BME280;62885;51.374;6.170;2023-02-15T11:49:30;102317.13;;;9.33;66.78
74372;BME280;62885;51.374;6.170;2023-02-15T11:51:57;102305.06;;;9.43;66.31
74372;BME280;62885;51.374;6.170;2023-02-15T11:54:33;102320.50;;;9.57;65.44
74372;BME280;62885;51.374;6.170;2023-02-15T11:59:49;102297.53;;;9.72;64.46
74372;BME280;62885;51.374;6.170;2023-02-15T12:02:20;102290.06;;;9.78;63.98
74372;BME280;62885;51.374;6.170;2023-02-15T12:04:48;102287.91;;;9.86;63.94
74372;BME280;62885;51.374;6.170;2023-02-15T12:07:41;102278.00;;;9.88;64.03
74372;BME280;62885;51.374;6.170;2023-02-15T12:10:20;102277.41;;;10.01;63.88
74372;BME280;62885;51.374;6.170;2023-02-15T12:12:47;102283.81;;;10.15;63.14
74372;BME280;62885;51.374;6.170;2023-02-15T12:15:13;102282.75;;;10.19;63.29
74372;BME280;62885;51.374;6.170;2023-02-15T12:17:41;102282.06;;;10.33;61.69
74372;BME280;62885;51.374;6.170;2023-02-15T12:22:39;102267.22;;;10.45;61.78
74372;BME280;62885;51.374;6.170;2023-02-15T12:25:27;102269.66;;;10.49;61.78
74372;BME280;62885;51.374;6.170;2023-02-15T12:27:54;102264.28;;;10.66;61.80
74372;BME280;62885;51.374;6.170;2023-02-15T12:30:42;102255.78;;;10.76;61.51
74372;BME280;62885;51.374;6.170;2023-02-15T12:33:28;102255.41;;;10.83;61.13
74372;BME280;62885;51.374;6.170;2023-02-15T12:36:10;102256.16;;;10.85;61.05
74372;BME280;62885;51.374;6.170;2023-02-15T12:38:37;102248.91;;;11.04;60.30
74372;BME280;62885;51.374;6.170;2023-02-15T12:41:10;102239.59;;;11.11;60.80
74372;BME280;62885;51.374;6.170;2023-02-15T12:43:46;102233.38;;;11.11;60.89
74372;BME280;62885;51.374;6.170;2023-02-15T12:48:46;102230.25;;;11.19;60.91
74372;BME280;62885;51.374;6.170;2023-02-15T12:51:15;102230.16;;;11.20;60.34
74372;BME280;62885;51.374;6.170;2023-02-15T12:53:41;102230.31;;;11.34;60.17
74372;BME280;62885;51.374;6.170;2023-02-15T12:56:09;102231.16;;;11.35;59.66
74372;BME280;62885;51.374;6.170;2023-02-15T12:58:36;102233.31;;;11.44;60.08
74372;BME280;62885;51.374;6.170;2023-02-15T13:03:34;102236.81;;;11.46;59.88
74372;BME280;62885;51.374;6.170;2023-02-15T13:06:01;102237.06;;;11.57;60.14
74372;BME280;62885;51.374;6.170;2023-02-15T13:08:31;102226.75;;;11.65;59.82
74372;BME280;62885;51.374;6.170;2023-02-15T13:13:32;102219.19;;;11.73;58.59
74372;BME280;62885;51.374;6.170;2023-02-15T13:16:05;102221.34;;;11.82;58.96
74372;BME280;62885;51.374;6.170;2023-02-15T13:18:36;102215.72;;;11.87;58.46
74372;BME280;62885;51.374;6.170;2023-02-15T13:21:16;102207.13;;;11.96;58.73
74372;BME280;62885;51.374;6.170;2023-02-15T13:23:50;102207.38;;;12.07;58.74
74372;BME280;62885;51.374;6.170;2023-02-15T13:26:21;102200.03;;;12.11;58.42
74372;BME280;62885;51.374;6.170;2023-02-15T13:28:52;102193.59;;;12.13;57.25
74372;BME280;62885;51.374;6.170;2023-02-15T13:31:19;102200.94;;;12.25;56.92
74372;BME280;62885;51.374;6.170;2023-02-15T13:33:51;102200.28;;;12.36;55.36
74372;BME280;62885;51.374;6.170;2023-02-15T13:39:32;102198.88;;;12.45;54.24
74372;BME280;62885;51.374;6.170;2023-02-15T13:42:20;102197.66;;;12.50;54.24
74372;BME280;62885;51.374;6.170;2023-02-15T14:01:13;102184.84;;;12.69;48.95
74372;BME280;62885;51.374;6.170;2023-02-15T14:04:06;102177.59;;;12.70;48.98
74372;BME280;62885;51.374;6.170;2023-02-15T14:09:40;102165.53;;;12.77;48.71
74372;BME280;62885;51.374;6.170;2023-02-15T14:18:24;102153.16;;;12.89;48.56
74372;BME280;62885;51.374;6.170;2023-02-15T14:21:17;102146.53;;;12.94;52.11
74372;BME280;62885;51.374;6.170;2023-02-15T14:31:45;102153.66;;;12.81;56.60
74372;BME280;62885;51.374;6.170;2023-02-15T14:34:22;102159.03;;;12.81;56.43
74372;BME280;62885;51.374;6.170;2023-02-15T14:36:50;102163.31;;;12.84;56.96
74372;BME280;62885;51.374;6.170;2023-02-15T14:42:10;102156.50;;;12.78;56.52
74372;BME280;62885;51.374;6.170;2023-02-15T14:44:47;102143.94;;;12.79;56.97
74372;BME280;62885;51.374;6.170;2023-02-15T14:47:26;102148.66;;;12.75;56.63
74372;BME280;62885;51.374;6.170;2023-02-15T14:49:55;102150.66;;;12.71;56.82
74372;BME280;62885;51.374;6.170;2023-02-15T14:52:21;102149.03;;;12.69;56.85
74372;BME280;62885;51.374;6.170;2023-02-15T15:05:06;102140.28;;;12.65;57.47
74372;BME280;62885;51.374;6.170;2023-02-15T15:15:31;102154.28;;;12.56;58.44
74372;BME280;62885;51.374;6.170;2023-02-15T15:18:06;102150.75;;;12.56;58.74
74372;BME280;62885;51.374;6.170;2023-02-15T15:20:42;102159.38;;;12.61;57.11
74372;BME280;62885;51.374;6.170;2023-02-15T15:31:05;102168.84;;;12.52;58.75
74372;BME280;62885;51.374;6.170;2023-02-15T15:33:58;102172.03;;;12.45;58.68
74372;BME280;62885;51.374;6.170;2023-02-15T15:39:28;102171.88;;;12.32;59.93
74372;BME280;62885;51.374;6.170;2023-02-15T15:42:32;102170.59;;;12.23;60.15